Time;durP1;ratioP1;P1;durP2;ratioP2;P2;SDS_P1;SDS_P2;PMS_P1;PMS_P2;Temp;Humidity;BMP_temperature;BMP_pressure;BME280_temperature;BME280_humidity;BME280_pressure;Samples;Min_cycle;Max_cycle;Signal;HPM_P1;HPM_P2
2023/01/13 00:00:20;;;;;;;7.38;4.20;;;;;;;;;;5021935;28;20042;-71
2023/01/13 00:02:46;;;;;;;7.82;4.20;;;;;;;;;;5022347;28;20509;-71
2023/01/13 00:05:12;;;;;;;6.43;4.63;;;;;;;;;;5022465;28;20060;-71
2023/01/13 00:07:39;;;;;;;6.68;4.10;;;;;;;;;;5020916;28;20053;-70
2023/01/13 00:10:09;;;;;;;6.28;4.20;;;;;;;;;;5021314;28;20065;-70
2023/01/13 00:12:40;;;;;;;6.68;4.13;;;;;;;;;;5028793;28;20049;-69
2023/01/13 00:15:06;;;;;;;5.72;3.10;;;;;;;;;;5022031;28;20136;-70
2023/01/13 00:17:32;;;;;;;2.08;1.88;;;;;;;;;;5021045;28;20454;-71
2023/01/13 00:19:57;;;;;;;3.38;1.80;;;;;;;;;;5020752;28;20164;-69
2023/01/13 00:22:22;;;;;;;6.38;3.85;;;;;;;;;;5021793;28;20049;-71
2023/01/13 00:24:48;;;;;;;6.55;3.95;;;;;;;;;;5021747;28;20049;-71
2023/01/13 00:27:13;;;;;;;6.32;3.22;;;;;;;;;;5021206;28;20041;-71
2023/01/13 00:29:39;;;;;;;4.25;2.80;;;;;;;;;;5020248;28;20601;-71
2023/01/13 00:32:04;;;;;;;4.53;2.80;;;;;;;;;;5020598;28;20056;-71
2023/01/13 00:34:30;;;;;;;7.25;3.03;;;;;;;;;;5021247;28;20049;-69
2023/01/13 00:36:56;;;;;;;3.60;2.70;;;;;;;;;;5020754;28;20049;-70
2023/01/13 00:39:22;;;;;;;4.50;3.33;;;;;;;;;;5021299;28;20045;-68
2023/01/13 00:44:31;;;;;;;4.57;3.47;;;;;;;;;;5021132;28;20071;-69
2023/01/13 00:46:57;;;;;;;4.20;3.17;;;;;;;;;;5020935;28;20041;-67
2023/01/13 00:49:22;;;;;;;4.75;3.42;;;;;;;;;;5020798;28;20049;-67
2023/01/13 00:51:47;;;;;;;3.72;3.10;;;;;;;;;;5020624;28;20060;-67
2023/01/13 00:54:13;;;;;;;4.88;3.53;;;;;;;;;;5020126;28;20180;-68
2023/01/13 00:56:38;;;;;;;4.35;3.67;;;;;;;;;;5020399;28;20049;-67
2023/01/13 00:59:04;;;;;;;3.67;3.08;;;;;;;;;;5021059;28;20045;-68
2023/01/13 01:01:30;;;;;;;4.60;3.38;;;;;;;;;;5020981;28;20111;-67
2023/01/13 01:03:55;;;;;;;4.18;3.08;;;;;;;;;;5020077;28;20060;-68
2023/01/13 01:06:23;;;;;;;5.55;3.15;;;;;;;;;;5020195;28;20568;-67
2023/01/13 01:08:49;;;;;;;4.93;3.60;;;;;;;;;;5021208;28;20046;-68
2023/01/13 01:11:17;;;;;;;4.55;3.30;;;;;;;;;;5020837;28;20053;-68
2023/01/13 01:13:43;;;;;;;4.13;2.83;;;;;;;;;;5035443;28;21232;-68
2023/01/13 01:16:11;;;;;;;5.63;3.78;;;;;;;;;;5018980;28;20814;-68
2023/01/13 01:18:40;;;;;;;4.95;3.53;;;;;;;;;;5020517;28;20077;-66
2023/01/13 01:21:06;;;;;;;10.63;3.22;;;;;;;;;;5020678;28;20756;-66
2023/01/13 01:23:33;;;;;;;4.10;3.05;;;;;;;;;;5018730;28;20132;-67
2023/01/13 01:26:00;;;;;;;5.68;3.05;;;;;;;;;;5019266;28;20112;-68
2023/01/13 01:28:26;;;;;;;6.43;3.72;;;;;;;;;;5017865;28;20740;-67
2023/01/13 01:30:54;;;;;;;4.40;3.13;;;;;;;;;;5018644;28;20593;-66
2023/01/13 01:33:20;;;;;;;4.72;3.00;;;;;;;;;;5017873;28;20049;-68
2023/01/13 01:35:45;;;;;;;4.13;2.70;;;;;;;;;;5017850;28;20037;-68
2023/01/13 01:38:11;;;;;;;5.72;3.15;;;;;;;;;;5019187;28;20042;-67
2023/01/13 01:40:36;;;;;;;5.00;2.85;;;;;;;;;;5035573;28;20049;-67
2023/01/13 01:45:45;;;;;;;3.67;2.13;;;;;;;;;;5019494;28;20446;-67
2023/01/13 01:48:11;;;;;;;3.53;2.20;;;;;;;;;;5019185;28;20145;-69
2023/01/13 01:50:38;;;;;;;4.30;2.70;;;;;;;;;;5020197;28;20328;-68
2023/01/13 01:53:11;;;;;;;9.13;2.60;;;;;;;;;;5020878;28;20044;-67
2023/01/13 01:55:37;;;;;;;2.30;2.03;;;;;;;;;;5019745;28;20087;-68
2023/01/13 01:58:28;;;;;;;4.57;2.10;;;;;;;;;;5019966;28;20128;-67
2023/01/13 02:00:53;;;;;;;2.67;2.10;;;;;;;;;;5020242;28;20479;-68
2023/01/13 02:03:19;;;;;;;2.35;1.65;;;;;;;;;;5024602;28;20617;-68
2023/01/13 02:05:45;;;;;;;3.25;1.60;;;;;;;;;;5023679;28;21010;-69
2023/01/13 02:08:12;;;;;;;2.55;1.77;;;;;;;;;;5024012;28;20049;-68
2023/01/13 02:10:39;;;;;;;2.67;2.03;;;;;;;;;;5023212;28;20060;-67
2023/01/13 02:13:09;;;;;;;4.68;2.03;;;;;;;;;;5024317;28;20064;-67
2023/01/13 02:15:40;;;;;;;4.03;2.30;;;;;;;;;;5023813;28;20052;-68
2023/01/13 02:18:11;;;;;;;2.57;1.90;;;;;;;;;;5038691;28;20053;-67
2023/01/13 02:20:40;;;;;;;2.90;2.25;;;;;;;;;;5023078;28;20081;-68
2023/01/13 02:26:45;;;;;;;2.45;1.70;;;;;;;;;;5050651;28;20142;-67
2023/01/13 02:32:41;;;;;;;2.33;1.95;;;;;;;;;;5026459;28;20528;-68
2023/01/13 02:35:23;;;;;;;3.63;1.98;;;;;;;;;;5023837;28;20053;-66
2023/01/13 02:37:50;;;;;;;5.60;2.47;;;;;;;;;;5022691;28;20041;-67
2023/01/13 02:40:25;;;;;;;3.72;2.58;;;;;;;;;;5018253;28;20057;-68
2023/01/13 02:46:03;;;;;;;2.35;2.15;;;;;;;;;;5022875;28;20056;-67
2023/01/13 02:48:30;;;;;;;2.38;2.17;;;;;;;;;;5023326;28;20110;-69
2023/01/13 02:51:04;;;;;;;2.92;2.15;;;;;;;;;;5023540;28;20044;-68
2023/01/13 02:53:41;;;;;;;3.33;1.80;;;;;;;;;;5022780;28;20765;-68
2023/01/13 02:56:08;;;;;;;4.95;2.15;;;;;;;;;;5020790;28;20110;-68
2023/01/13 02:58:37;;;;;;;2.38;1.73;;;;;;;;;;5023192;28;20049;-68
2023/01/13 03:01:03;;;;;;;1.85;1.40;;;;;;;;;;5023342;28;20053;-67
2023/01/13 03:03:30;;;;;;;4.45;1.70;;;;;;;;;;5023579;28;20041;-68
2023/01/13 03:06:11;;;;;;;2.47;1.58;;;;;;;;;;5021803;28;20059;-68
2023/01/13 03:08:59;;;;;;;3.72;1.38;;;;;;;;;;5023136;28;20053;-66
2023/01/13 03:11:31;;;;;;;1.67;1.20;;;;;;;;;;5022938;28;20084;-68
2023/01/13 03:14:08;;;;;;;2.90;1.42;;;;;;;;;;5021565;28;20049;-67
2023/01/13 03:16:56;;;;;;;2.33;1.00;;;;;;;;;;5021640;28;20046;-68
2023/01/13 03:19:33;;;;;;;2.40;1.00;;;;;;;;;;5022807;28;20049;-68
2023/01/13 03:22:17;;;;;;;3.72;1.23;;;;;;;;;;5022396;28;20053;-67
2023/01/13 03:24:48;;;;;;;1.40;0.95;;;;;;;;;;5022623;28;20049;-67
2023/01/13 03:27:37;;;;;;;2.13;0.90;;;;;;;;;;5021826;28;20537;-68
2023/01/13 03:30:14;;;;;;;0.70;0.70;;;;;;;;;;5022617;28;20049;-68
2023/01/13 03:32:46;;;;;;;1.92;1.30;;;;;;;;;;5022231;28;20054;-68
2023/01/13 03:35:14;;;;;;;;;;;;;;;;;;5023364;28;20080;-68
2023/01/13 03:37:46;;;;;;;0.95;0.80;;;;;;;;;;5020590;28;20005;-68
2023/01/13 03:40:20;;;;;;;0.93;0.70;;;;;;;;;;5022562;28;20494;-68
2023/01/13 03:45:39;;;;;;;2.97;2.30;;;;;;;;;;5022015;28;20037;-68
2023/01/13 03:48:14;;;;;;;4.30;3.13;;;;;;;;;;5021922;28;20403;-67
2023/01/13 03:50:48;;;;;;;2.35;2.10;;;;;;;;;;5021770;28;20049;-67
2023/01/13 03:53:26;;;;;;;3.85;3.05;;;;;;;;;;5022317;28;20406;-66
2023/01/13 03:56:02;;;;;;;3.28;2.22;;;;;;;;;;5022043;28;20141;-67
2023/01/13 03:58:38;;;;;;;2.42;2.08;;;;;;;;;;5021424;28;20080;-66
2023/01/13 04:01:32;;;;;;;5.03;2.13;;;;;;;;;;5021076;28;20076;-67
2023/01/13 04:04:15;;;;;;;2.58;2.17;;;;;;;;;;5021830;28;20482;-67
2023/01/13 04:06:40;;;;;;;;;;;;;;;;;;5020700;28;20053;-68
2023/01/13 04:09:19;;;;;;;3.03;2.28;;;;;;;;;;5021291;28;20405;-68
2023/01/13 04:11:59;;;;;;;2.83;2.00;;;;;;;;;;5020165;28;20049;-68
2023/01/13 04:14:26;;;;;;;2.97;2.22;;;;;;;;;;5022043;28;20045;-67
2023/01/13 04:16:54;;;;;;;3.20;1.95;;;;;;;;;;5021195;28;20073;-67
2023/01/13 04:19:20;;;;;;;2.35;1.92;;;;;;;;;;5021945;28;20580;-67
2023/01/13 04:21:45;;;;;;;2.00;1.60;;;;;;;;;;5035911;28;20045;-68
2023/01/13 04:24:11;;;;;;;3.97;1.83;;;;;;;;;;5021632;28;20115;-67
2023/01/13 04:26:37;;;;;;;2.83;1.85;;;;;;;;;;5020614;28;20068;-68
2023/01/13 04:29:02;;;;;;;4.57;2.00;;;;;;;;;;5021649;28;20099;-67
2023/01/13 04:31:27;;;;;;;3.35;1.98;;;;;;;;;;5021960;28;20478;-68
2023/01/13 04:33:53;;;;;;;2.75;1.90;;;;;;;;;;5020097;28;20047;-67
2023/01/13 04:36:18;;;;;;;3.88;2.13;;;;;;;;;;5020854;28;20111;-68
2023/01/13 04:38:44;;;;;;;5.43;2.20;;;;;;;;;;5021496;28;20049;-67
2023/01/13 04:41:09;;;;;;;2.53;2.08;;;;;;;;;;5020379;28;20049;-68
2023/01/13 04:43:35;;;;;;;2.13;1.90;;;;;;;;;;5020498;28;20045;-68
2023/01/13 04:46:00;;;;;;;2.10;1.85;;;;;;;;;;5020851;28;20046;-66
2023/01/13 04:48:26;;;;;;;3.65;2.10;;;;;;;;;;5020811;28;20513;-69
2023/01/13 04:50:51;;;;;;;5.75;2.40;;;;;;;;;;5021509;28;20045;-69
2023/01/13 04:53:17;;;;;;;2.80;2.10;;;;;;;;;;5020494;28;20156;-70
2023/01/13 04:55:43;;;;;;;2.00;1.77;;;;;;;;;;5019750;28;20044;-68
2023/01/13 04:58:10;;;;;;;3.42;2.20;;;;;;;;;;5020681;28;20060;-70
2023/01/13 05:00:36;;;;;;;3.15;2.38;;;;;;;;;;5035710;28;20410;-66
2023/01/13 05:03:02;;;;;;;2.72;1.92;;;;;;;;;;5021382;28;20545;-68
2023/01/13 05:05:29;;;;;;;2.40;2.20;;;;;;;;;;5019349;28;20060;-71
2023/01/13 05:07:54;;;;;;;3.95;2.28;;;;;;;;;;5034121;28;20045;-70
2023/01/13 05:10:20;;;;;;;2.63;2.17;;;;;;;;;;5019538;28;20056;-71
2023/01/13 05:18:15;;;;;;;5.72;3.17;;;;;;;;;;5041281;28;20051;-69
2023/01/13 05:20:40;;;;;;;3.50;2.42;;;;;;;;;;5019802;28;20073;-70
2023/01/13 05:25:50;;;;;;;3.50;1.90;;;;;;;;;;5018636;28;20445;-70
2023/01/13 05:28:16;;;;;;;2.22;1.80;;;;;;;;;;5033493;28;20555;-70
2023/01/13 05:30:44;;;;;;;2.75;1.77;;;;;;;;;;5035047;28;20083;-69
2023/01/13 05:33:11;;;;;;;3.45;1.50;;;;;;;;;;5019660;28;20057;-69
2023/01/13 05:35:38;;;;;;;1.73;1.60;;;;;;;;;;5017063;28;20045;-71
2023/01/13 05:38:04;;;;;;;2.20;1.67;;;;;;;;;;5020167;28;20045;-69
2023/01/13 05:43:19;;;;;;;3.05;1.38;;;;;;;;;;5019832;28;20501;-69
2023/01/13 05:46:08;;;;;;;1.50;1.33;;;;;;;;;;5018737;28;20053;-69
2023/01/13 05:48:38;;;;;;;2.42;1.17;;;;;;;;;;5017962;28;20451;-69
2023/01/13 05:51:05;;;;;;;2.60;1.58;;;;;;;;;;5005299;28;20639;-69
2023/01/13 05:53:31;;;;;;;2.28;1.65;;;;;;;;;;5033129;28;20053;-69
2023/01/13 05:55:57;;;;;;;2.38;1.88;;;;;;;;;;5024180;28;20053;-70
2023/01/13 05:58:25;;;;;;;3.75;3.00;;;;;;;;;;5016358;28;20048;-69
2023/01/13 06:00:51;;;;;;;3.78;2.80;;;;;;;;;;5017186;28;20053;-69
2023/01/13 06:03:20;;;;;;;3.88;2.70;;;;;;;;;;5037085;28;20045;-70
2023/01/13 06:05:47;;;;;;;4.13;2.55;;;;;;;;;;5018596;28;20049;-69
2023/01/13 06:08:13;;;;;;;4.35;2.05;;;;;;;;;;5019590;28;20053;-69
2023/01/13 06:10:38;;;;;;;7.70;2.00;;;;;;;;;;5018962;28;20073;-69
2023/01/13 06:13:04;;;;;;;3.22;2.38;;;;;;;;;;5019627;28;20521;-69
2023/01/13 06:15:30;;;;;;;4.18;2.17;;;;;;;;;;5012218;28;20115;-69
2023/01/13 06:17:56;;;;;;;3.92;2.00;;;;;;;;;;5015890;28;21036;-69
2023/01/13 06:20:22;;;;;;;2.92;2.60;;;;;;;;;;5016985;28;20073;-69
2023/01/13 06:22:50;;;;;;;2.47;1.70;;;;;;;;;;5016257;28;20045;-69
2023/01/13 06:25:29;;;;;;;4.07;1.70;;;;;;;;;;5017252;28;20546;-69
2023/01/13 06:27:58;;;;;;;2.08;1.52;;;;;;;;;;5017256;28;20041;-70
2023/01/13 06:30:25;;;;;;;3.33;1.52;;;;;;;;;;5018713;28;20061;-69
2023/01/13 06:32:54;;;;;;;1.65;1.40;;;;;;;;;;5018995;28;20120;-69
2023/01/13 06:35:24;;;;;;;3.15;1.50;;;;;;;;;;5017989;28;20049;-70
2023/01/13 06:37:52;;;;;;;2.65;1.60;;;;;;;;;;5018498;28;20048;-69
2023/01/13 06:40:18;;;;;;;1.70;1.50;;;;;;;;;;5019590;28;20057;-69
2023/01/13 06:45:29;;;;;;;1.40;1.30;;;;;;;;;;5017735;28;20553;-69
2023/01/13 06:47:57;;;;;;;2.50;1.20;;;;;;;;;;5019104;28;20049;-69
2023/01/13 06:50:23;;;;;;;2.97;1.50;;;;;;;;;;5023344;28;20048;-69
2023/01/13 06:52:48;;;;;;;3.33;1.60;;;;;;;;;;5021784;28;20338;-69
2023/01/13 06:55:14;;;;;;;4.57;1.40;;;;;;;;;;5020735;28;20387;-69
2023/01/13 06:57:49;;;;;;;2.88;1.70;;;;;;;;;;5020265;28;20060;-70
2023/01/13 07:00:15;;;;;;;2.65;1.05;;;;;;;;;;5021222;28;20131;-68
2023/01/13 07:02:40;;;;;;;1.58;1.48;;;;;;;;;;5021116;28;20049;-68
2023/01/13 07:05:06;;;;;;;1.42;1.20;;;;;;;;;;5020243;28;20073;-68
2023/01/13 07:07:32;;;;;;;1.23;1.00;;;;;;;;;;5019267;28;20140;-69
2023/01/13 07:09:58;;;;;;;1.58;1.05;;;;;;;;;;5021902;28;20065;-68
2023/01/13 07:12:23;;;;;;;3.35;1.38;;;;;;;;;;5023279;28;20053;-68
2023/01/13 07:17:33;;;;;;;3.28;1.30;;;;;;;;;;5018033;28;20585;-69
2023/01/13 07:19:58;;;;;;;5.07;1.30;;;;;;;;;;5022226;28;20049;-68
2023/01/13 07:22:24;;;;;;;1.88;1.60;;;;;;;;;;5018238;28;20049;-69
2023/01/13 07:24:49;;;;;;;2.17;1.85;;;;;;;;;;5020814;28;20048;-68
2023/01/13 07:27:15;;;;;;;3.88;1.90;;;;;;;;;;5022450;28;20050;-67
2023/01/13 07:29:40;;;;;;;2.53;1.85;;;;;;;;;;5022532;28;20792;-66
2023/01/13 07:32:06;;;;;;;1.73;1.50;;;;;;;;;;5022816;28;20041;-67
2023/01/13 07:34:32;;;;;;;2.28;2.00;;;;;;;;;;5022211;28;20053;-68
2023/01/13 07:36:57;;;;;;;2.80;1.92;;;;;;;;;;5037178;28;20042;-67
2023/01/13 07:39:23;;;;;;;3.78;2.30;;;;;;;;;;5018944;28;20103;-67
2023/01/13 07:44:32;;;;;;;3.88;2.42;;;;;;;;;;5021713;28;20053;-68
2023/01/13 07:46:57;;;;;;;6.30;2.58;;;;;;;;;;5021743;28;20490;-66
2023/01/13 07:49:23;;;;;;;4.80;2.85;;;;;;;;;;5021795;28;20049;-66
2023/01/13 07:51:48;;;;;;;8.93;2.70;;;;;;;;;;5021366;28;20405;-66
2023/01/13 07:54:14;;;;;;;4.32;2.80;;;;;;;;;;5022356;28;20045;-67
2023/01/13 07:56:39;;;;;;;4.93;3.60;;;;;;;;;;5021193;28;20545;-65
2023/01/13 07:59:05;;;;;;;5.45;3.47;;;;;;;;;;5037592;28;20055;-67
2023/01/13 08:01:30;;;;;;;4.07;3.45;;;;;;;;;;5021522;28;20060;-67
2023/01/13 08:03:57;;;;;;;3.33;2.88;;;;;;;;;;5021066;28;20132;-66
2023/01/13 08:06:24;;;;;;;5.07;3.30;;;;;;;;;;5021771;28;20045;-66
2023/01/13 08:08:50;;;;;;;3.75;2.90;;;;;;;;;;5021021;28;20064;-66
2023/01/13 08:11:16;;;;;;;6.18;3.20;;;;;;;;;;5022302;28;20122;-67
2023/01/13 08:13:41;;;;;;;3.60;2.90;;;;;;;;;;5020829;28;20044;-67
2023/01/13 08:16:09;;;;;;;4.00;2.92;;;;;;;;;;5021688;28;20406;-66
2023/01/13 08:18:36;;;;;;;3.30;2.80;;;;;;;;;;5020996;28;20068;-66
2023/01/13 08:21:09;;;;;;;3.35;2.70;;;;;;;;;;5022561;28;20067;-66
2023/01/13 08:23:35;;;;;;;3.38;2.45;;;;;;;;;;5021572;28;21069;-67
2023/01/13 08:26:04;;;;;;;4.57;2.55;;;;;;;;;;5021232;28;20049;-67
2023/01/13 08:28:30;;;;;;;4.82;2.50;;;;;;;;;;5021003;28;20052;-66
2023/01/13 08:31:00;;;;;;;3.47;2.65;;;;;;;;;;5021915;28;20037;-67
2023/01/13 08:33:26;;;;;;;2.72;2.47;;;;;;;;;;5021396;28;20049;-67
2023/01/13 08:35:52;;;;;;;2.70;1.58;;;;;;;;;;5020331;28;20079;-68
2023/01/13 08:38:18;;;;;;;4.53;2.50;;;;;;;;;;5021311;28;20103;-67
2023/01/13 08:40:43;;;;;;;6.80;2.60;;;;;;;;;;5028839;28;20045;-67
2023/01/13 08:43:09;;;;;;;4.70;2.95;;;;;;;;;;5022146;28;20049;-66
2023/01/13 08:45:35;;;;;;;3.95;3.00;;;;;;;;;;5020971;28;20154;-67
2023/01/13 08:48:01;;;;;;;4.78;3.35;;;;;;;;;;5020725;28;20425;-67
2023/01/13 08:50:26;;;;;;;3.90;2.95;;;;;;;;;;5020972;28;20064;-67
2023/01/13 08:52:52;;;;;;;6.88;2.92;;;;;;;;;;5021952;28;20045;-67
2023/01/13 08:55:17;;;;;;;4.18;2.90;;;;;;;;;;5021169;28;20123;-66
2023/01/13 08:57:43;;;;;;;3.67;2.67;;;;;;;;;;5019484;28;20045;-67
2023/01/13 09:00:09;;;;;;;5.25;2.53;;;;;;;;;;5021239;28;20045;-66
2023/01/13 09:02:35;;;;;;;3.42;2.70;;;;;;;;;;5021637;28;20053;-67
2023/01/13 09:05:02;;;;;;;3.15;2.80;;;;;;;;;;5020879;28;20096;-67
2023/01/13 09:07:29;;;;;;;4.70;2.97;;;;;;;;;;5019786;28;20164;-67
2023/01/13 09:09:55;;;;;;;4.55;3.03;;;;;;;;;;5020668;28;20056;-67
2023/01/13 09:15:06;;;;;;;3.80;2.90;;;;;;;;;;5020701;28;20092;-67
2023/01/13 09:17:32;;;;;;;4.38;3.22;;;;;;;;;;5020593;28;20053;-67
2023/01/13 09:19:57;;;;;;;4.65;3.30;;;;;;;;;;5020506;28;20042;-66
2023/01/13 09:22:25;;;;;;;5.13;3.30;;;;;;;;;;5020837;28;20147;-66
2023/01/13 09:24:52;;;;;;;4.28;3.33;;;;;;;;;;5028143;28;20033;-66
2023/01/13 09:27:17;;;;;;;4.97;3.90;;;;;;;;;;5020757;28;20064;-66
2023/01/13 09:29:43;;;;;;;5.18;3.70;;;;;;;;;;5019440;28;20041;-65
2023/01/13 09:32:13;;;;;;;4.47;3.25;;;;;;;;;;5020773;28;20049;-66
2023/01/13 09:37:22;;;;;;;6.47;3.08;;;;;;;;;;5020270;28;20038;-65
2023/01/13 09:39:47;;;;;;;5.60;3.30;;;;;;;;;;5020829;28;20107;-66
2023/01/13 09:45:27;;;;;;;4.75;3.38;;;;;;;;;;5019654;28;20053;-66
2023/01/13 09:48:04;;;;;;;4.05;3.00;;;;;;;;;;5019790;28;20050;-67
2023/01/13 09:50:50;;;;;;;7.65;3.53;;;;;;;;;;5020974;28;20049;-66
2023/01/13 09:53:22;;;;;;;4.03;3.03;;;;;;;;;;5020073;28;20045;-65
2023/01/13 09:55:48;;;;;;;4.85;3.50;;;;;;;;;;5019199;28;20518;-66
2023/01/13 09:58:16;;;;;;;4.63;3.13;;;;;;;;;;5020991;28;20199;-66
2023/01/13 10:00:58;;;;;;;8.80;3.90;;;;;;;;;;5020821;28;20057;-66
2023/01/13 10:03:26;;;;;;;6.32;4.15;;;;;;;;;;5018197;28;20056;-67
2023/01/13 10:06:16;;;;;;;6.60;4.43;;;;;;;;;;5018956;28;20060;-67
2023/01/13 10:08:43;;;;;;;6.78;3.75;;;;;;;;;;5018515;28;20041;-68
2023/01/13 10:14:12;;;;;;;5.20;3.10;;;;;;;;;;5018534;28;20103;-66
2023/01/13 10:16:48;;;;;;;5.63;3.35;;;;;;;;;;5004282;28;20067;-68
2023/01/13 10:19:23;;;;;;;10.95;4.50;;;;;;;;;;5002322;28;20064;-67
2023/01/13 10:21:51;;;;;;;6.05;4.10;;;;;;;;;;5007505;28;20085;-67
2023/01/13 10:24:22;;;;;;;6.70;3.75;;;;;;;;;;5009781;28;20049;-68
2023/01/13 10:27:22;;;;;;;6.22;3.95;;;;;;;;;;5006841;28;20046;-66
2023/01/13 10:29:47;;;;;;;4.70;3.25;;;;;;;;;;4999477;28;20034;-68
2023/01/13 10:32:12;;;;;;;6.40;3.35;;;;;;;;;;5012417;28;20049;-66
2023/01/13 10:34:59;;;;;;;8.15;3.28;;;;;;;;;;5013381;28;20180;-67
2023/01/13 10:37:26;;;;;;;5.55;3.15;;;;;;;;;;5006182;28;20120;-67
2023/01/13 10:39:58;;;;;;;7.15;3.17;;;;;;;;;;5010983;28;20064;-67
2023/01/13 10:42:24;;;;;;;3.25;2.72;;;;;;;;;;5015759;28;20442;-68
2023/01/13 10:44:58;;;;;;;4.57;2.97;;;;;;;;;;5023168;28;20045;-68
2023/01/13 10:47:30;;;;;;;4.53;2.90;;;;;;;;;;5022068;28;20066;-67
2023/01/13 10:50:04;;;;;;;;;;;;;;;;;;5039694;28;20045;-68
2023/01/13 10:52:36;;;;;;;3.50;2.53;;;;;;;;;;5024336;28;21078;-68
2023/01/13 10:55:21;;;;;;;5.63;2.55;;;;;;;;;;5023059;28;20490;-67
2023/01/13 10:57:46;;;;;;;5.95;2.33;;;;;;;;;;5020119;28;20182;-68
2023/01/13 11:00:32;;;;;;;4.15;2.40;;;;;;;;;;5023696;28;20144;-67
2023/01/13 11:03:15;;;;;;;3.53;2.63;;;;;;;;;;5023612;28;20060;-67
2023/01/13 11:05:52;;;;;;;4.07;2.97;;;;;;;;;;5021235;28;20103;-68
2023/01/13 11:08:24;;;;;;;6.70;2.83;;;;;;;;;;5021020;28;20065;-67
2023/01/13 11:10:55;;;;;;;3.67;2.90;;;;;;;;;;5023776;28;20041;-67
2023/01/13 11:13:32;;;;;;;3.78;2.70;;;;;;;;;;5024376;28;20564;-68
2023/01/13 11:16:06;;;;;;;5.75;2.78;;;;;;;;;;5020944;28;20048;-68
2023/01/13 11:19:00;;;;;;;2.65;1.90;;;;;;;;;;5020712;28;20045;-68
2023/01/13 11:21:45;;;;;;;3.08;1.13;;;;;;;;;;5021495;28;20103;-68
2023/01/13 11:24:30;;;;;;;1.77;1.23;;;;;;;;;;5045707;28;20057;-67
2023/01/13 11:27:11;;;;;;;0.40;0.40;;;;;;;;;;5021392;28;20095;-67
2023/01/13 11:29:43;;;;;;;0.40;0.40;;;;;;;;;;5021136;28;20124;-67
2023/01/13 11:32:17;;;;;;;0.22;0.22;;;;;;;;;;5020896;28;20164;-68
2023/01/13 11:34:47;;;;;;;0.77;0.40;;;;;;;;;;5020380;28;20049;-66
2023/01/13 11:37:29;;;;;;;1.85;0.50;;;;;;;;;;5021823;28;20068;-67
2023/01/13 11:40:04;;;;;;;0.10;0.10;;;;;;;;;;5020535;28;20053;-67
2023/01/13 11:43:00;;;;;;;0.30;0.30;;;;;;;;;;5021378;28;20041;-67
2023/01/13 11:45:41;;;;;;;0.20;0.20;;;;;;;;;;5021437;28;20049;-66
2023/01/13 11:48:13;;;;;;;6.22;0.38;;;;;;;;;;5019980;28;20136;-67
2023/01/13 11:50:50;;;;;;;0.55;0.45;;;;;;;;;;5020968;28;20502;-67
2023/01/13 11:53:41;;;;;;;0.20;0.20;;;;;;;;;;5020100;28;20041;-67
2023/01/13 11:56:30;;;;;;;1.75;0.45;;;;;;;;;;5019834;28;20049;-67
2023/01/13 11:59:23;;;;;;;1.23;0.52;;;;;;;;;;5019881;28;20049;-69
2023/01/13 12:02:16;;;;;;;0.57;0.30;;;;;;;;;;5018516;28;20140;-70
2023/01/13 12:04:53;;;;;;;1.48;0.28;;;;;;;;;;5017382;28;20739;-68
2023/01/13 12:07:28;;;;;;;0.30;0.30;;;;;;;;;;5019428;28;20045;-68
2023/01/13 12:10:04;;;;;;;0.95;0.28;;;;;;;;;;5018799;28;20523;-69
2023/01/13 12:12:52;;;;;;;0.20;0.20;;;;;;;;;;5017958;28;20422;-68
2023/01/13 12:15:21;;;;;;;0.65;0.50;;;;;;;;;;5017935;28;20570;-68
2023/01/13 12:17:58;;;;;;;0.35;0.32;;;;;;;;;;5018320;28;20057;-68
2023/01/13 12:21:02;;;;;;;2.95;0.88;;;;;;;;;;5019812;28;20608;-69
2023/01/13 12:23:50;;;;;;;0.65;0.38;;;;;;;;;;5019138;28;20110;-69
2023/01/13 12:26:16;;;;;;;0.20;0.20;;;;;;;;;;5048430;28;20168;-68
2023/01/13 12:28:45;;;;;;;0.93;0.30;;;;;;;;;;5019650;28;20045;-68
2023/01/13 12:31:12;;;;;;;6.40;0.40;;;;;;;;;;5019030;28;20077;-68
2023/01/13 12:34:07;;;;;;;0.52;0.20;;;;;;;;;;5019402;28;20771;-67
2023/01/13 12:36:51;;;;;;;0.28;0.28;;;;;;;;;;5042130;28;20100;-67
2023/01/13 12:39:54;;;;;;;0.30;0.30;;;;;;;;;;5019769;28;20049;-68
2023/01/13 12:45:44;;;;;;;0.25;0.22;;;;;;;;;;4975194;28;20054;-69
2023/01/13 12:48:49;;;;;;;0.80;0.30;;;;;;;;;;5010244;28;20207;-68
2023/01/13 12:51:34;;;;;;;0.32;0.32;;;;;;;;;;5020510;28;20081;-67
2023/01/13 12:54:02;;;;;;;3.33;0.30;;;;;;;;;;5019670;28;20037;-68
2023/01/13 12:56:42;;;;;;;0.30;0.30;;;;;;;;;;5019398;28;20072;-68
2023/01/13 12:59:31;;;;;;;1.90;0.63;;;;;;;;;;5019311;28;20140;-68
2023/01/13 13:02:09;;;;;;;0.32;0.32;;;;;;;;;;5018769;28;20087;-69
2023/01/13 13:04:40;;;;;;;0.47;0.47;;;;;;;;;;5019283;28;20041;-67
2023/01/13 13:07:22;;;;;;;0.97;0.30;;;;;;;;;;5018888;28;20509;-67
2023/01/13 13:10:23;;;;;;;0.50;0.50;;;;;;;;;;5017076;28;20120;-67
2023/01/13 13:15:38;;;;;;;0.20;0.20;;;;;;;;;;5019528;28;20045;-67
2023/01/13 13:18:15;;;;;;;0.75;0.35;;;;;;;;;;5019618;28;20386;-68
2023/01/13 13:20:57;;;;;;;0.88;0.40;;;;;;;;;;5019991;28;20425;-68
2023/01/13 13:23:31;;;;;;;0.28;0.28;;;;;;;;;;5021524;28;20111;-68
2023/01/13 13:26:09;;;;;;;0.50;0.50;;;;;;;;;;5016883;28;20051;-68
2023/01/13 13:28:44;;;;;;;1.70;0.60;;;;;;;;;;5018368;28;20045;-67
2023/01/13 13:31:24;;;;;;;0.40;0.40;;;;;;;;;;5018981;28;20052;-68
2023/01/13 13:34:14;;;;;;;0.88;0.40;;;;;;;;;;5008697;28;20601;-66
2023/01/13 13:36:57;;;;;;;0.32;0.32;;;;;;;;;;5018367;28;20037;-68
2023/01/13 13:48:32;;;;;;;0.68;0.50;;;;;;;;;;5057935;28;20050;-67
2023/01/13 13:51:02;;;;;;;9.35;0.50;;;;;;;;;;5029056;28;20053;-68
2023/01/13 13:53:40;;;;;;;0.10;0.10;;;;;;;;;;5012839;28;20069;-68
2023/01/13 13:56:16;;;;;;;0.22;0.22;;;;;;;;;;5012733;28;20061;-67
2023/01/13 13:58:42;;;;;;;0.52;0.40;;;;;;;;;;5031386;28;20052;-67
2023/01/13 14:01:23;;;;;;;0.65;0.40;;;;;;;;;;5021306;28;20049;-68
2023/01/13 14:04:09;;;;;;;0.38;0.38;;;;;;;;;;5022470;28;20049;-68
2023/01/13 14:06:34;;;;;;;0.25;0.25;;;;;;;;;;5021331;28;20072;-68
2023/01/13 14:09:02;;;;;;;0.28;0.28;;;;;;;;;;5020124;28;20511;-67
2023/01/13 14:11:31;;;;;;;0.38;0.35;;;;;;;;;;5021116;28;20128;-67
2023/01/13 14:14:01;;;;;;;0.30;0.30;;;;;;;;;;5035493;28;20037;-68
2023/01/13 14:16:30;;;;;;;1.58;0.40;;;;;;;;;;5018618;28;20076;-69
2023/01/13 14:18:56;;;;;;;1.83;0.40;;;;;;;;;;5020142;28;20042;-69
2023/01/13 14:21:25;;;;;;;0.63;0.35;;;;;;;;;;5020694;28;20381;-68
2023/01/13 14:23:54;;;;;;;0.93;0.40;;;;;;;;;;5020356;28;20195;-68
2023/01/13 14:26:24;;;;;;;1.10;0.43;;;;;;;;;;5020682;28;20816;-69
2023/01/13 14:28:50;;;;;;;1.33;0.30;;;;;;;;;;5020817;28;20139;-69
2023/01/13 14:31:15;;;;;;;0.35;0.35;;;;;;;;;;5020877;28;20136;-68
2023/01/13 14:33:49;;;;;;;0.20;0.20;;;;;;;;;;5021821;28;20049;-69
2023/01/13 14:36:24;;;;;;;3.33;0.40;;;;;;;;;;5046729;28;20430;-69
2023/01/13 14:39:13;;;;;;;0.40;0.40;;;;;;;;;;5019996;28;20545;-68
2023/01/13 14:41:41;;;;;;;0.35;0.30;;;;;;;;;;5021632;28;20045;-69
2023/01/13 14:44:14;;;;;;;0.40;0.40;;;;;;;;;;5020254;28;20058;-68
2023/01/13 14:46:44;;;;;;;0.50;0.50;;;;;;;;;;5017952;28;20053;-67
2023/01/13 14:49:23;;;;;;;0.90;0.70;;;;;;;;;;5018237;28;20046;-68
2023/01/13 14:51:49;;;;;;;0.63;0.55;;;;;;;;;;5019549;28;20052;-68
2023/01/13 14:55:13;;;;;;;0.40;0.40;;;;;;;;;;5020124;28;20037;-68
2023/01/13 14:57:40;;;;;;;0.88;0.57;;;;;;;;;;5011168;28;20064;-68
2023/01/13 15:00:15;;;;;;;0.40;0.40;;;;;;;;;;5008039;28;20053;-69
2023/01/13 15:02:55;;;;;;;0.30;0.30;;;;;;;;;;5013535;28;20041;-68
2023/01/13 15:05:21;;;;;;;0.30;0.30;;;;;;;;;;5019630;28;20053;-66
2023/01/13 15:08:16;;;;;;;0.20;0.20;;;;;;;;;;5020948;28;20045;-68
2023/01/13 15:10:49;;;;;;;1.45;0.40;;;;;;;;;;5020771;28;20084;-67
2023/01/13 15:13:39;;;;;;;0.85;0.50;;;;;;;;;;5019407;28;20056;-68
2023/01/13 15:16:23;;;;;;;0.30;0.30;;;;;;;;;;5035002;28;20130;-65
2023/01/13 15:18:49;;;;;;;1.10;0.40;;;;;;;;;;5013134;28;20049;-66
2023/01/13 15:21:16;;;;;;;0.85;0.45;;;;;;;;;;5018269;28;20111;-68
2023/01/13 15:23:42;;;;;;;3.17;0.60;;;;;;;;;;5021548;28;20529;-66
2023/01/13 15:26:20;;;;;;;0.82;0.82;;;;;;;;;;5021332;28;20049;-67
2023/01/13 15:28:46;;;;;;;3.50;0.50;;;;;;;;;;5021930;28;20057;-67
2023/01/13 15:31:11;;;;;;;0.82;0.40;;;;;;;;;;5022749;28;20057;-67
2023/01/13 15:33:37;;;;;;;0.68;0.50;;;;;;;;;;5021670;28;20767;-67
2023/01/13 15:36:05;;;;;;;0.25;0.25;;;;;;;;;;5021120;28;20414;-65
2023/01/13 15:38:31;;;;;;;1.88;0.63;;;;;;;;;;5021837;28;20057;-66
2023/01/13 15:40:56;;;;;;;1.30;0.50;;;;;;;;;;5022460;28;20065;-66
2023/01/13 15:46:36;;;;;;;1.35;0.70;;;;;;;;;;5020962;28;20056;-67
2023/01/13 15:49:08;;;;;;;2.45;0.80;;;;;;;;;;5021860;28;20126;-66
2023/01/13 15:51:34;;;;;;;;;;;;;;;;;;5022901;28;21028;-67
2023/01/13 15:54:01;;;;;;;0.55;0.52;;;;;;;;;;5021953;28;19999;-66
2023/01/13 15:56:27;;;;;;;0.70;0.50;;;;;;;;;;5020443;28;20044;-67
2023/01/13 15:58:53;;;;;;;0.82;0.60;;;;;;;;;;5021841;28;20871;-68
2023/01/13 16:01:19;;;;;;;2.50;0.77;;;;;;;;;;5020449;28;20061;-68
2023/01/13 16:03:44;;;;;;;3.20;0.90;;;;;;;;;;5020898;28;20084;-70
2023/01/13 16:06:16;;;;;;;0.52;0.52;;;;;;;;;;5017911;28;20410;-70
2023/01/13 16:08:42;;;;;;;;;;;;;;;;;;5021012;28;20084;-71
2023/01/13 16:11:08;;;;;;;1.02;0.60;;;;;;;;;;5022000;28;20316;-70
2023/01/13 16:13:34;;;;;;;1.70;1.08;;;;;;;;;;5021851;28;20490;-71
2023/01/13 16:15:59;;;;;;;2.70;0.63;;;;;;;;;;5020769;28;20095;-70